createdAt,value
2023-10-26T00:02:16.777Z,96586.79
2023-10-26T00:04:45.003Z,96586.75
2023-10-26T00:07:13.111Z,96590.20
2023-10-26T00:09:40.966Z,96593.44
2023-10-26T00:12:08.793Z,96590.84
2023-10-26T00:14:37.018Z,96588.89
2023-10-26T00:17:05.211Z,96589.89
2023-10-26T00:19:34.402Z,96591.13
2023-10-26T00:22:02.234Z,96585.95
2023-10-26T00:24:31.065Z,96594.77
2023-10-26T00:27:00.235Z,96604.45
2023-10-26T00:29:28.322Z,96603.01
2023-10-26T00:31:57.522Z,96596.21
2023-10-26T00:34:25.431Z,96582.67
2023-10-26T00:36:53.272Z,96568.38
2023-10-26T00:39:21.241Z,96549.11
2023-10-26T00:41:53.124Z,96544.80
2023-10-26T00:44:21.824Z,96548.34
2023-10-26T00:46:50.439Z,96551.04
2023-10-26T00:49:21.614Z,96546.92
2023-10-26T00:51:56.729Z,96550.61
2023-10-26T00:54:25.037Z,96556.52
2023-10-26T00:56:53.915Z,96554.92
2023-10-26T00:59:22.083Z,96545.23
2023-10-26T01:01:51.071Z,96540.36
2023-10-26T01:04:19.044Z,96538.55
2023-10-26T01:06:46.918Z,96542.16
2023-10-26T01:09:16.223Z,96542.14
2023-10-26T01:11:45.129Z,96544.45
2023-10-26T01:14:13.502Z,96548.97
2023-10-26T01:16:41.646Z,96554.20
2023-10-26T01:19:10.939Z,96551.31
2023-10-26T01:21:52.025Z,96548.29
2023-10-26T01:24:21.638Z,96546.63
2023-10-26T01:26:51.149Z,96548.16
2023-10-26T01:29:20.835Z,96546.39
2023-10-26T01:31:49.646Z,96544.09
2023-10-26T01:34:17.486Z,96543.35
2023-10-26T01:36:45.330Z,96541.59
2023-10-26T01:39:15.646Z,96532.44
2023-10-26T01:41:44.491Z,96529.73
2023-10-26T01:44:12.667Z,96532.06
2023-10-26T01:46:40.497Z,96531.42
2023-10-26T01:49:08.425Z,96531.88
2023-10-26T01:51:36.216Z,96524.06
2023-10-26T01:54:04.159Z,96520.63
2023-10-26T01:56:32.512Z,96526.64
2023-10-26T01:59:00.418Z,96526.20
2023-10-26T02:01:28.877Z,96528.23
2023-10-26T02:03:56.796Z,96525.70
2023-10-26T02:06:24.800Z,96531.50
2023-10-26T02:08:52.891Z,96536.69
2023-10-26T02:11:21.033Z,96536.78
2023-10-26T02:13:49.152Z,96534.04
2023-10-26T02:16:19.222Z,96535.63
2023-10-26T02:18:47.443Z,96535.20
2023-10-26T02:21:15.472Z,96534.54
2023-10-26T02:23:45.216Z,96535.49
2023-10-26T02:26:13.184Z,96538.32
2023-10-26T02:28:41.336Z,96534.13
2023-10-26T02:31:09.250Z,96535.33
2023-10-26T02:33:37.169Z,96536.99
2023-10-26T02:36:07.931Z,96542.84
2023-10-26T02:38:35.971Z,96542.34
2023-10-26T02:41:05.312Z,96541.51
2023-10-26T02:43:33.242Z,96545.98
2023-10-26T02:46:02.652Z,96546.67
2023-10-26T02:48:30.762Z,96541.96
2023-10-26T02:50:58.826Z,96540.87
2023-10-26T02:53:26.966Z,96537.13
2023-10-26T02:55:55.459Z,96527.19
2023-10-26T02:58:23.418Z,96513.92
2023-10-26T03:00:51.278Z,96509.02
2023-10-26T03:03:19.346Z,96506.11
2023-10-26T03:05:47.363Z,96512.19
2023-10-26T03:08:15.392Z,96523.24
2023-10-26T03:10:43.625Z,96530.81
2023-10-26T03:13:12.984Z,96526.64
2023-10-26T03:15:40.809Z,96524.42
2023-10-26T03:18:08.761Z,96527.34
2023-10-26T03:20:36.881Z,96527.04
2023-10-26T03:23:05.460Z,96522.44
2023-10-26T03:25:33.439Z,96520.31
2023-10-26T03:28:01.284Z,96520.27
2023-10-26T03:30:29.416Z,96524.52
2023-10-26T03:32:57.595Z,96521.47
2023-10-26T03:35:25.581Z,96522.25
2023-10-26T03:37:53.624Z,96523.70
2023-10-26T03:40:22.063Z,96516.06
2023-10-26T03:42:49.900Z,96513.29
2023-10-26T03:45:17.850Z,96516.80
2023-10-26T03:47:46.717Z,96521.27
2023-10-26T03:50:14.898Z,96520.79
2023-10-26T03:52:42.812Z,96517.86
2023-10-26T03:55:10.640Z,96518.16
2023-10-26T03:57:38.887Z,96528.95
2023-10-26T04:00:07.195Z,96532.83
2023-10-26T04:02:43.827Z,96531.95
2023-10-26T04:05:12.099Z,96533.28
2023-10-26T04:07:40.998Z,96543.36
2023-10-26T04:10:09.607Z,96539.70
2023-10-26T04:12:37.479Z,96543.33
2023-10-26T04:15:05.967Z,96541.79
2023-10-26T04:17:33.960Z,96541.21
2023-10-26T04:20:01.858Z,96537.80
2023-10-26T04:22:29.829Z,96534.41
2023-10-26T04:24:57.812Z,96533.77
2023-10-26T04:27:26.226Z,96525.47
2023-10-26T04:29:54.334Z,96525.65
2023-10-26T04:32:22.850Z,96527.25
2023-10-26T04:34:50.924Z,96526.48
2023-10-26T04:37:19.005Z,96522.98
2023-10-26T04:39:47.075Z,96517.58
2023-10-26T04:42:15.022Z,96519.42
2023-10-26T04:44:43.347Z,96514.34
2023-10-26T04:47:11.495Z,96514.20
2023-10-26T04:49:39.369Z,96523.73
2023-10-26T04:52:07.170Z,96533.77
2023-10-26T04:54:35.207Z,96533.90
2023-10-26T04:57:03.446Z,96530.15
2023-10-26T04:59:31.338Z,96525.91
2023-10-26T05:01:59.198Z,96528.10
2023-10-26T05:04:27.390Z,96529.57
2023-10-26T05:06:55.626Z,96531.81
2023-10-26T05:09:23.774Z,96531.38
2023-10-26T05:11:51.892Z,96532.39
2023-10-26T05:14:19.894Z,96529.43
2023-10-26T05:16:48.028Z,96525.25
2023-10-26T05:19:15.874Z,96522.86
2023-10-26T05:21:43.867Z,96518.93
2023-10-26T05:24:11.962Z,96521.73
2023-10-26T05:26:39.827Z,96525.56
2023-10-26T05:29:07.972Z,96528.91
2023-10-26T05:31:35.996Z,96536.04
2023-10-26T05:34:03.926Z,96538.41
2023-10-26T05:36:32.006Z,96552.20
2023-10-26T05:39:00.163Z,96563.44
2023-10-26T05:41:28.429Z,96577.70
2023-10-26T05:43:56.312Z,96589.95
2023-10-26T05:46:24.269Z,96595.27
2023-10-26T05:48:52.362Z,96591.95
2023-10-26T05:51:20.422Z,96590.34
2023-10-26T05:53:48.483Z,96596.73
2023-10-26T05:56:16.561Z,96605.15
2023-10-26T05:58:44.830Z,96609.25
2023-10-26T06:01:12.904Z,96606.42
2023-10-26T06:03:40.905Z,96602.64
2023-10-26T06:06:09.060Z,96591.95
2023-10-26T06:08:38.246Z,96591.64
2023-10-26T06:11:06.306Z,96590.02
2023-10-26T06:13:34.310Z,96581.92
2023-10-26T06:16:02.366Z,96574.50
2023-10-26T06:18:30.268Z,96574.14
2023-10-26T06:20:59.430Z,96575.65
2023-10-26T06:23:29.275Z,96575.48
2023-10-26T06:25:58.466Z,96565.02
2023-10-26T06:28:27.118Z,96562.50
2023-10-26T06:30:55.602Z,96558.54
2023-10-26T06:33:24.305Z,96553.40
2023-10-26T06:35:52.384Z,96551.84
2023-10-26T06:38:20.269Z,96547.66
2023-10-26T06:40:48.604Z,96544.55
2023-10-26T06:43:16.613Z,96542.35
2023-10-26T06:45:44.679Z,96544.30
2023-10-26T06:48:15.117Z,96537.96
2023-10-26T06:50:44.370Z,96532.50
2023-10-26T06:53:15.529Z,96536.55
2023-10-26T06:55:44.115Z,96536.48
2023-10-26T06:58:11.961Z,96539.58
2023-10-26T07:00:40.070Z,96540.91
2023-10-26T07:03:08.747Z,96538.80
2023-10-26T07:05:36.897Z,96538.70
2023-10-26T07:08:05.291Z,96537.98
2023-10-26T07:10:33.357Z,96538.66
2023-10-26T07:13:01.314Z,96539.42
2023-10-26T07:15:29.550Z,96547.41
2023-10-26T07:17:57.564Z,96548.59
2023-10-26T07:20:25.511Z,96546.30
2023-10-26T07:22:54.223Z,96543.83
2023-10-26T07:25:22.018Z,96544.67
2023-10-26T07:27:50.003Z,96547.55
2023-10-26T07:30:18.018Z,96548.70
2023-10-26T07:32:46.266Z,96555.51
2023-10-26T07:35:16.253Z,96558.78
2023-10-26T07:40:35.112Z,96564.38
2023-10-26T07:43:03.178Z,96564.23
2023-10-26T07:45:31.086Z,96567.01
2023-10-26T07:50:47.412Z,96568.18
2023-10-26T07:53:16.350Z,96569.61
2023-10-26T07:55:47.573Z,96568.97
2023-10-26T07:58:15.666Z,96563.40
2023-10-26T08:00:43.571Z,96561.58
2023-10-26T08:03:11.510Z,96561.21
2023-10-26T08:05:39.619Z,96559.20
2023-10-26T08:08:07.629Z,96559.88
2023-10-26T08:10:39.126Z,96558.02
2023-10-26T08:13:07.275Z,96554.39
2023-10-26T08:16:10.576Z,96556.77
2023-10-26T08:18:26.911Z,96559.48
2023-10-26T08:20:55.345Z,96560.51
2023-10-26T08:23:23.442Z,96564.96
2023-10-26T08:25:51.855Z,96567.80
2023-10-26T08:28:20.105Z,96573.05
2023-10-26T08:30:49.167Z,96577.84
2023-10-26T08:33:17.122Z,96582.52
2023-10-26T08:35:51.671Z,96584.13
2023-10-26T08:38:19.643Z,96584.09
2023-10-26T08:40:51.646Z,96585.88
2023-10-26T08:43:20.169Z,96584.82
2023-10-26T08:45:48.954Z,96580.66
2023-10-26T08:48:18.667Z,96584.61
2023-10-26T08:50:48.084Z,96588.23
2023-10-26T08:53:16.456Z,96593.18
2023-10-26T08:55:44.733Z,96590.70
2023-10-26T08:58:12.732Z,96590.86
2023-10-26T09:00:42.108Z,96590.96
2023-10-26T09:03:10.217Z,96585.83
2023-10-26T09:05:52.700Z,96585.27
2023-10-26T09:08:20.760Z,96585.20
2023-10-26T09:10:48.602Z,96586.67
2023-10-26T09:13:23.844Z,96590.55
2023-10-26T09:15:52.860Z,96588.02
2023-10-26T09:18:23.786Z,96582.41
2023-10-26T09:21:02.767Z,96576.75
2023-10-26T09:23:32.235Z,96574.38
2023-10-26T09:26:01.241Z,96565.16
2023-10-26T09:28:29.440Z,96559.52
2023-10-26T09:30:59.822Z,96553.61
2023-10-26T09:33:28.388Z,96555.20
2023-10-26T09:36:10.914Z,96555.75
2023-10-26T09:38:40.285Z,96554.29
2023-10-26T09:41:10.028Z,96549.03
2023-10-26T09:43:38.869Z,96547.89
2023-10-26T09:46:07.050Z,96555.05
2023-10-26T09:48:35.700Z,96555.05
2023-10-26T09:51:05.861Z,96553.98
2023-10-26T09:53:37.171Z,96546.64
2023-10-26T09:56:05.682Z,96542.27
2023-10-26T09:58:37.188Z,96538.69
2023-10-26T10:01:25.386Z,96539.86
2023-10-26T10:03:53.319Z,96533.32
2023-10-26T10:06:39.713Z,96533.45
2023-10-26T10:09:07.729Z,96532.90
2023-10-26T10:11:36.561Z,96531.79
2023-10-26T10:14:04.532Z,96528.90
2023-10-26T10:16:35.561Z,96528.18
2023-10-26T10:19:33.631Z,96519.52
2023-10-26T10:22:03.725Z,96515.09
2023-10-26T10:24:40.715Z,96510.19
2023-10-26T10:27:13.050Z,96504.36
2023-10-26T10:29:41.396Z,96508.03
2023-10-26T10:32:12.171Z,96515.40
2023-10-26T10:34:45.413Z,96514.52
2023-10-26T10:37:23.240Z,96503.55
2023-10-26T10:40:10.382Z,96497.38
2023-10-26T10:42:42.403Z,96495.23
2023-10-26T10:45:12.674Z,96487.77
2023-10-26T10:47:44.598Z,96484.79
2023-10-26T10:50:19.721Z,96485.67
2023-10-26T10:52:49.094Z,96479.30
2023-10-26T10:55:35.229Z,96473.38
2023-10-26T10:58:04.274Z,96465.92
2023-10-26T11:00:38.239Z,96455.80
2023-10-26T11:05:38.717Z,96447.21
2023-10-26T11:08:08.098Z,96448.52
2023-10-26T11:10:36.034Z,96449.95
2023-10-26T11:13:04.640Z,96445.00
2023-10-26T11:15:33.798Z,96440.46
2023-10-26T11:18:02.407Z,96438.50
2023-10-26T11:20:48.437Z,96435.45
2023-10-26T11:23:19.994Z,96436.59
2023-10-26T11:25:48.034Z,96434.55
2023-10-26T11:28:16.412Z,96433.95
2023-10-26T11:30:51.366Z,96432.55
2023-10-26T11:33:32.728Z,96434.38
2023-10-26T11:36:01.007Z,96433.65
2023-10-26T11:38:29.138Z,96430.37
2023-10-26T11:40:57.465Z,96424.33
2023-10-26T11:43:35.918Z,96419.20
2023-10-26T11:46:07.393Z,96421.10
2023-10-26T11:48:35.723Z,96421.39
2023-10-26T11:51:07.988Z,96416.59
2023-10-26T11:53:37.071Z,96417.23
2023-10-26T11:56:05.619Z,96418.83
2023-10-26T11:58:35.571Z,96419.41
2023-10-26T12:01:04.998Z,96417.45
2023-10-26T12:03:33.184Z,96411.00
2023-10-26T12:06:01.328Z,96411.46
2023-10-26T12:08:29.199Z,96415.64
2023-10-26T12:10:57.021Z,96416.96
2023-10-26T12:13:25.021Z,96419.39
2023-10-26T12:15:53.087Z,96416.26
2023-10-26T12:18:21.159Z,96415.04
2023-10-26T12:20:49.010Z,96414.86
2023-10-26T12:23:16.937Z,96417.66
2023-10-26T12:25:47.950Z,96419.21
2023-10-26T12:28:25.528Z,96424.85
2023-10-26T12:30:54.928Z,96425.49
2023-10-26T12:33:23.071Z,96427.55
2023-10-26T12:35:52.305Z,96425.81
2023-10-26T12:38:24.860Z,96419.26
2023-10-26T12:40:52.958Z,96423.27
2023-10-26T12:43:20.934Z,96417.23
2023-10-26T12:45:48.921Z,96419.67
2023-10-26T12:48:17.142Z,96419.19
2023-10-26T12:50:45.454Z,96415.54
2023-10-26T12:53:13.972Z,96424.42
2023-10-26T12:55:42.081Z,96429.29
2023-10-26T12:58:10.249Z,96432.15
2023-10-26T13:00:38.449Z,96428.58
2023-10-26T13:03:06.627Z,96430.39
2023-10-26T13:05:34.798Z,96433.41
2023-10-26T13:08:02.745Z,96432.25
2023-10-26T13:10:32.361Z,96430.75
2023-10-26T13:13:00.523Z,96432.34
2023-10-26T13:15:28.667Z,96431.61
2023-10-26T13:17:56.646Z,96429.50
2023-10-26T13:20:27.227Z,96428.46
2023-10-26T13:22:55.325Z,96423.95
2023-10-26T13:25:24.443Z,96423.12
2023-10-26T13:27:52.737Z,96418.80
2023-10-26T13:30:21.432Z,96415.70
2023-10-26T13:32:49.492Z,96414.54
2023-10-26T13:35:17.394Z,96412.55
2023-10-26T13:37:45.587Z,96411.80
2023-10-26T13:40:13.672Z,96412.58
2023-10-26T13:42:41.539Z,96414.00
2023-10-26T13:45:09.915Z,96416.20
2023-10-26T13:47:37.755Z,96420.36
2023-10-26T13:50:06.033Z,96423.11
2023-10-26T13:52:34.000Z,96432.52
2023-10-26T13:55:02.172Z,96433.99
2023-10-26T13:57:30.272Z,96432.81
2023-10-26T13:59:58.428Z,96431.53
2023-10-26T14:02:26.548Z,96428.94
2023-10-26T14:04:54.665Z,96426.91
2023-10-26T14:07:24.549Z,96426.80
2023-10-26T14:09:53.503Z,96422.70
2023-10-26T14:12:21.654Z,96423.64
2023-10-26T14:14:49.623Z,96428.90
2023-10-26T14:17:17.687Z,96429.19
2023-10-26T14:19:46.508Z,96428.36
2023-10-26T14:22:14.762Z,96431.80
2023-10-26T14:24:44.050Z,96428.61
2023-10-26T14:27:12.410Z,96432.00
2023-10-26T14:29:40.507Z,96435.73
2023-10-26T14:32:08.498Z,96440.93
2023-10-26T14:34:38.191Z,96444.45
2023-10-26T14:37:06.013Z,96437.73
2023-10-26T14:39:33.913Z,96443.44
2023-10-26T14:42:01.862Z,96451.83
2023-10-26T14:44:29.864Z,96449.65
2023-10-26T14:46:57.774Z,96452.20
2023-10-26T14:49:25.580Z,96455.84
2023-10-26T14:51:53.731Z,96454.68
2023-10-26T14:54:21.590Z,96458.70
2023-10-26T14:56:49.439Z,96457.85
2023-10-26T14:59:17.478Z,96458.22
2023-10-26T15:01:45.505Z,96461.35
2023-10-26T15:04:13.811Z,96459.15
2023-10-26T15:06:41.920Z,96463.60
2023-10-26T15:09:10.279Z,96471.73
2023-10-26T15:11:56.507Z,96471.86
2023-10-26T15:14:25.779Z,96475.08
2023-10-26T15:16:54.843Z,96477.82
2023-10-26T15:19:23.042Z,96475.52
2023-10-26T15:21:51.015Z,96474.59
2023-10-26T15:24:19.206Z,96475.70
2023-10-26T15:26:47.261Z,96485.30
2023-10-26T15:29:15.336Z,96493.91
2023-10-26T15:31:43.830Z,96490.88
2023-10-26T15:34:11.812Z,96486.97
2023-10-26T15:36:39.866Z,96484.73
2023-10-26T15:39:09.377Z,96484.32
2023-10-26T15:41:41.334Z,96484.54
2023-10-26T15:44:10.030Z,96489.92
2023-10-26T15:46:37.971Z,96496.89
2023-10-26T15:49:33.006Z,96497.89
2023-10-26T15:51:55.826Z,96500.36
2023-10-26T15:54:23.984Z,96510.84
2023-10-26T15:56:51.812Z,96519.13
2023-10-26T15:59:19.654Z,96521.41
2023-10-26T16:01:47.930Z,96518.90
2023-10-26T16:04:15.866Z,96522.33
2023-10-26T16:06:44.031Z,96521.46
2023-10-26T16:09:11.963Z,96523.53
2023-10-26T16:11:40.327Z,96531.31
2023-10-26T16:14:08.396Z,96530.27
2023-10-26T16:16:36.633Z,96533.20
2023-10-26T16:19:05.791Z,96539.34
2023-10-26T16:21:33.855Z,96539.51
2023-10-26T16:24:01.925Z,96544.35
2023-10-26T16:26:29.813Z,96539.16
2023-10-26T16:29:00.056Z,96537.86
2023-10-26T16:31:28.474Z,96536.09
2023-10-26T16:33:56.584Z,96542.21
2023-10-26T16:36:25.877Z,96548.56
2023-10-26T16:38:53.781Z,96545.99
2023-10-26T16:41:21.788Z,96538.42
2023-10-26T16:43:50.379Z,96530.55
2023-10-26T16:46:19.377Z,96531.75
2023-10-26T16:48:47.580Z,96529.60
2023-10-26T16:51:16.546Z,96530.31
2023-10-26T16:53:44.640Z,96528.71
2023-10-26T16:56:12.589Z,96527.23
2023-10-26T16:58:40.485Z,96520.74
2023-10-26T17:01:12.468Z,96520.85
2023-10-26T17:03:40.652Z,96520.69
2023-10-26T17:06:11.641Z,96523.36
2023-10-26T17:08:39.678Z,96524.24
2023-10-26T17:11:11.247Z,96519.77
2023-10-26T17:13:39.265Z,96519.48
2023-10-26T17:16:08.883Z,96523.43
2023-10-26T17:18:37.214Z,96522.41
2023-10-26T17:21:05.238Z,96518.52
2023-10-26T17:23:35.612Z,96514.12
2023-10-26T17:26:03.970Z,96511.88
2023-10-26T17:28:31.866Z,96515.97
2023-10-26T17:31:06.496Z,96512.55
2023-10-26T17:33:35.115Z,96514.29
2023-10-26T17:36:05.602Z,96515.74
2023-10-26T17:38:34.050Z,96517.59
2023-10-26T17:41:08.778Z,96519.46
2023-10-26T17:43:39.624Z,96524.37
2023-10-26T17:46:08.166Z,96524.92
2023-10-26T17:48:37.565Z,96525.49
2023-10-26T17:51:09.261Z,96523.73
2023-10-26T17:53:39.380Z,96520.92
2023-10-26T17:56:10.277Z,96516.36
2023-10-26T17:58:38.293Z,96509.20
2023-10-26T18:01:10.357Z,96509.08
2023-10-26T18:03:39.910Z,96510.42
2023-10-26T18:06:08.048Z,96511.30
2023-10-26T18:08:36.827Z,96512.74
2023-10-26T18:11:05.523Z,96509.92
2023-10-26T18:13:35.522Z,96509.59
2023-10-26T18:16:08.764Z,96516.59
2023-10-26T18:18:37.796Z,96521.27
2023-10-26T18:21:07.021Z,96521.91
2023-10-26T18:23:38.235Z,96523.02
2023-10-26T18:26:12.314Z,96523.60
2023-10-26T18:28:41.638Z,96527.59
2023-10-26T18:31:14.575Z,96533.65
2023-10-26T18:33:47.016Z,96534.16
2023-10-26T18:36:15.935Z,96531.48
2023-10-26T18:38:59.862Z,96527.05
2023-10-26T18:41:29.874Z,96523.81
2023-10-26T18:43:57.788Z,96521.02
2023-10-26T18:46:28.820Z,96518.41
2023-10-26T18:49:03.937Z,96523.48
2023-10-26T18:51:33.711Z,96531.70
2023-10-26T18:54:04.634Z,96539.44
2023-10-26T18:56:32.663Z,96541.91
2023-10-26T18:59:00.823Z,96541.02
2023-10-26T19:01:28.750Z,96531.80
2023-10-26T19:04:02.669Z,96525.30
2023-10-26T19:06:31.478Z,96530.71
2023-10-26T19:08:59.940Z,96533.44
2023-10-26T19:11:29.200Z,96532.70
2023-10-26T19:13:57.438Z,96530.94
2023-10-26T19:16:25.704Z,96532.38
2023-10-26T19:18:53.966Z,96538.16
2023-10-26T19:21:22.217Z,96532.14
2023-10-26T19:23:50.729Z,96530.63
2023-10-26T19:26:18.785Z,96527.79
2023-10-26T19:28:47.019Z,96527.16
2023-10-26T19:31:18.617Z,96524.90
2023-10-26T19:33:50.663Z,96524.47
2023-10-26T19:36:19.634Z,96524.39
2023-10-26T19:38:50.065Z,96523.17
2023-10-26T19:41:18.369Z,96517.83
2023-10-26T19:43:46.409Z,96515.81
2023-10-26T19:46:14.671Z,96509.09
2023-10-26T19:48:42.914Z,96507.13
2023-10-26T19:51:11.017Z,96503.35
2023-10-26T19:53:39.079Z,96511.01
2023-10-26T19:56:07.690Z,96507.63
2023-10-26T19:58:38.570Z,96502.16
2023-10-26T20:01:14.034Z,96497.48
2023-10-26T20:03:42.280Z,96498.20
2023-10-26T20:06:10.454Z,96501.98
2023-10-26T20:08:38.588Z,96501.77
2023-10-26T20:11:10.607Z,96495.98
2023-10-26T20:13:38.745Z,96494.63
2023-10-26T20:16:06.795Z,96491.52
2023-10-26T20:18:43.309Z,96493.56
2023-10-26T20:21:11.183Z,96498.91
2023-10-26T20:23:39.229Z,96502.02
2023-10-26T20:26:07.118Z,96502.64
2023-10-26T20:28:35.760Z,96497.24
2023-10-26T20:31:05.055Z,96494.89
2023-10-26T20:33:33.274Z,96494.69
2023-10-26T20:36:01.510Z,96487.61
2023-10-26T20:38:29.403Z,96485.19
2023-10-26T20:40:57.236Z,96486.61
2023-10-26T20:43:25.383Z,96490.17
2023-10-26T20:45:57.931Z,96487.92
2023-10-26T20:48:26.665Z,96488.32
2023-10-26T20:50:55.968Z,96488.69
2023-10-26T20:53:29.232Z,96486.72
2023-10-26T20:56:00.747Z,96485.82
2023-10-26T20:58:29.511Z,96485.41
2023-10-26T21:00:58.116Z,96482.46
2023-10-26T21:03:26.578Z,96484.06
2023-10-26T21:05:54.864Z,96495.29
2023-10-26T21:08:23.348Z,96502.76
2023-10-26T21:10:51.439Z,96504.96
2023-10-26T21:13:19.395Z,96511.95
2023-10-26T21:15:48.137Z,96526.35
2023-10-26T21:18:16.142Z,96536.54
2023-10-26T21:20:43.919Z,96537.23
2023-10-26T21:23:11.776Z,96532.45
2023-10-26T21:25:39.646Z,96531.84
2023-10-26T21:28:08.540Z,96533.33
2023-10-26T21:30:39.693Z,96535.88
2023-10-26T21:33:07.547Z,96532.96
2023-10-26T21:35:36.753Z,96524.54
2023-10-26T21:38:05.773Z,96519.30
2023-10-26T21:40:38.224Z,96515.20
2023-10-26T21:43:06.511Z,96515.06
2023-10-26T21:45:37.741Z,96512.38
2023-10-26T21:48:06.099Z,96501.73
2023-10-26T21:50:35.048Z,96499.33
2023-10-26T21:53:03.192Z,96500.02
2023-10-26T21:55:31.247Z,96499.99
2023-10-26T21:57:59.112Z,96491.73
2023-10-26T22:00:29.638Z,96487.52
2023-10-26T22:02:57.946Z,96486.19
2023-10-26T22:05:27.412Z,96487.23
2023-10-26T22:07:55.603Z,96481.10
2023-10-26T22:10:23.558Z,96483.95
2023-10-26T22:12:51.545Z,96488.23
2023-10-26T22:15:19.821Z,96482.67
2023-10-26T22:17:48.057Z,96475.91
2023-10-26T22:20:16.783Z,96476.21
2023-10-26T22:22:44.853Z,96471.38
2023-10-26T22:25:12.957Z,96469.39
2023-10-26T22:27:41.549Z,96473.23
2023-10-26T22:30:09.896Z,96467.58
2023-10-26T22:32:37.743Z,96460.15
2023-10-26T22:35:05.886Z,96469.27
2023-10-26T22:37:34.092Z,96474.91
2023-10-26T22:40:02.082Z,96476.23
2023-10-26T22:42:30.248Z,96474.15
2023-10-26T22:44:58.372Z,96466.96
2023-10-26T22:47:26.415Z,96463.56
2023-10-26T22:49:55.640Z,96461.29
2023-10-26T22:52:23.620Z,96459.27
2023-10-26T22:54:51.698Z,96461.70
2023-10-26T22:57:20.212Z,96470.43
2023-10-26T22:59:48.342Z,96470.86
2023-10-26T23:02:16.174Z,96466.55
2023-10-26T23:04:44.664Z,96459.61
2023-10-26T23:07:12.690Z,96463.56
2023-10-26T23:09:40.883Z,96467.27
2023-10-26T23:12:09.656Z,96463.50
2023-10-26T23:14:37.475Z,96458.34
2023-10-26T23:17:05.506Z,96457.83
2023-10-26T23:19:33.410Z,96451.92
2023-10-26T23:22:03.093Z,96444.20
2023-10-26T23:24:31.177Z,96449.27
2023-10-26T23:26:59.117Z,96446.02
2023-10-26T23:29:29.060Z,96438.67
2023-10-26T23:31:56.897Z,96427.58
2023-10-26T23:34:24.905Z,96421.98
2023-10-26T23:36:53.150Z,96421.05
2023-10-26T23:39:20.948Z,96415.70
2023-10-26T23:41:48.842Z,96411.67
2023-10-26T23:44:16.870Z,96414.64
2023-10-26T23:46:44.671Z,96415.14
2023-10-26T23:49:12.640Z,96414.45
2023-10-26T23:51:40.669Z,96414.20
2023-10-26T23:54:09.868Z,96412.17
2023-10-26T23:56:38.469Z,96415.56
2023-10-26T23:59:06.311Z,96416.54
